Time;durP1;ratioP1;P1;durP2;ratioP2;P2;SDS_P1;SDS_P2;PMS_P1;PMS_P2;Temp;Humidity;BMP_temperature;BMP_pressure;BME280_temperature;BME280_humidity;BME280_pressure;Samples;Min_cycle;Max_cycle;Signal;HPM_P1;HPM_P2
2021/07/09 00:02:43;;;;;;;5.57;4.97;;;;;;;17.87;78.77;96936.31;5093631;28;20431;-68
2021/07/09 00:05:08;;;;;;;13.00;5.53;;;;;;;17.83;79.11;96948.34;5091673;28;20188;-67
2021/07/09 00:07:34;;;;;;;5.90;4.80;;;;;;;17.72;79.47;96955.06;5093210;28;20610;-66
2021/07/09 00:09:59;;;;;;;7.70;4.50;;;;;;;17.83;79.07;96956.31;5096237;28;20292;-65
2021/07/09 00:12:25;;;;;;;5.23;4.73;;;;;;;17.86;78.92;96955.91;5085530;28;20274;-66
2021/07/09 00:14:51;;;;;;;6.37;4.70;;;;;;;17.59;79.82;96949.75;5092965;28;20178;-67
2021/07/09 00:17:16;;;;;;;6.77;4.90;;;;;;;17.83;78.82;96963.44;5098563;28;20192;-67
2021/07/09 00:19:43;;;;;;;6.10;5.00;;;;;;;17.92;77.75;96960.38;5093522;28;20193;-66
2021/07/09 00:22:08;;;;;;;4.83;4.40;;;;;;;17.83;78.52;96963.44;5093254;28;20185;-68
2021/07/09 00:24:34;;;;;;;5.03;4.53;;;;;;;18.19;77.28;96964.88;5090855;28;20426;-67
2021/07/09 00:27:03;;;;;;;5.37;4.87;;;;;;;18.13;77.40;96961.22;5090556;28;20253;-67
2021/07/09 00:29:29;;;;;;;5.37;4.53;;;;;;;17.40;80.62;96967.28;5092625;28;20243;-67
2021/07/09 00:31:54;;;;;;;6.17;4.17;;;;;;;17.66;79.60;96962.00;5092451;28;20473;-68
2021/07/09 00:34:21;;;;;;;5.80;5.03;;;;;;;17.78;78.84;96959.56;5093046;28;20190;-68
2021/07/09 00:36:46;;;;;;;8.03;4.77;;;;;;;17.45;80.36;96957.69;5094099;28;20230;-66
2021/07/09 00:39:12;;;;;;;5.70;5.07;;;;;;;17.41;81.03;96959.16;5094390;28;20447;-67
2021/07/09 00:41:38;;;;;;;6.07;4.80;;;;;;;17.32;80.66;96950.56;5093671;28;20223;-68
2021/07/09 00:44:07;;;;;;;6.53;5.50;;;;;;;17.14;81.22;96948.50;5084451;28;20209;-67
2021/07/09 00:46:40;;;;;;;6.80;5.63;;;;;;;17.42;80.70;96952.00;5094559;28;20185;-66
2021/07/09 00:49:07;;;;;;;7.20;6.20;;;;;;;17.55;79.61;96945.91;5093264;28;20467;-66
2021/07/09 00:51:33;;;;;;;9.17;6.60;;;;;;;17.58;79.24;96946.31;5093400;28;20428;-67
2021/07/09 00:53:58;;;;;;;8.80;6.37;;;;;;;17.48;79.21;96943.25;5092509;28;20496;-66
2021/07/09 00:56:25;;;;;;;7.00;6.30;;;;;;;17.39;79.72;96944.47;5087491;28;20253;-68
2021/07/09 00:58:51;;;;;;;6.30;5.70;;;;;;;17.30;80.76;96946.50;5091471;28;20188;-67
2021/07/09 01:01:17;;;;;;;7.30;6.43;;;;;;;17.43;80.11;96945.69;5092632;28;20519;-66
2021/07/09 01:03:43;;;;;;;5.87;5.37;;;;;;;17.55;79.24;96933.47;5092255;28;20494;-66
2021/07/09 01:06:10;;;;;;;8.13;6.10;;;;;;;17.41;80.21;96931.81;5093095;28;20178;-66
2021/07/09 01:08:35;;;;;;;5.80;5.20;;;;;;;17.45;80.01;96925.91;5092802;28;20205;-66
2021/07/09 01:11:01;;;;;;;6.27;5.77;;;;;;;17.32;80.35;96926.72;5092202;28;20446;-66
2021/07/09 01:13:27;;;;;;;6.20;5.60;;;;;;;17.48;80.27;96919.41;5091883;28;20178;-66
2021/07/09 01:15:52;;;;;;;7.00;6.40;;;;;;;17.33;80.09;96925.72;5092650;28;20273;-66
2021/07/09 01:18:18;;;;;;;7.07;6.40;;;;;;;17.30;80.55;96923.47;5090837;28;20182;-66
2021/07/09 01:20:44;;;;;;;6.43;5.83;;;;;;;17.35;80.20;96915.75;5090396;28;20570;-66
2021/07/09 01:23:10;;;;;;;6.60;6.03;;;;;;;17.40;80.13;96917.78;5091643;28;20812;-66
2021/07/09 01:25:35;;;;;;;8.93;5.90;;;;;;;17.46;80.18;96918.81;5085278;28;20185;-67
2021/07/09 01:28:05;;;;;;;8.50;6.20;;;;;;;17.33;80.45;96924.88;5091918;28;20346;-66
2021/07/09 01:30:30;;;;;;;8.53;6.17;;;;;;;17.26;80.04;96921.44;5091630;28;20621;-66
2021/07/09 01:32:57;;;;;;;7.87;6.17;;;;;;;17.28;80.08;96930.00;5091964;28;20427;-66
2021/07/09 01:35:24;;;;;;;7.33;5.57;;;;;;;17.02;80.77;96936.88;5093595;28;20628;-67
2021/07/09 01:37:59;;;;;;;5.50;5.10;;;;;;;16.90;81.06;96920.72;5093465;28;20416;-67
2021/07/09 01:40:25;;;;;;;6.60;4.97;;;;;;;17.21;79.99;96929.97;5091047;28;20451;-67
2021/07/09 01:42:51;;;;;;;8.57;4.80;;;;;;;17.34;79.53;96929.16;5092069;28;20926;-66
2021/07/09 01:45:16;;;;;;;6.50;4.83;;;;;;;17.57;78.24;96928.78;5091461;28;20426;-66
2021/07/09 01:47:42;;;;;;;4.73;4.33;;;;;;;17.25;79.41;96925.09;5091175;28;20684;-66
2021/07/09 01:50:09;;;;;;;5.50;4.20;;;;;;;16.97;80.66;96929.53;5091377;28;20228;-67
2021/07/09 01:52:34;;;;;;;4.33;4.00;;;;;;;17.16;79.25;96927.94;5091268;28;20181;-67
2021/07/09 01:55:01;;;;;;;5.03;4.60;;;;;;;17.04;80.11;96930.34;5085876;28;20428;-68
2021/07/09 01:57:27;;;;;;;7.23;4.67;;;;;;;17.04;79.85;96934.84;5082803;28;20174;-66
2021/07/09 01:59:54;;;;;;;8.83;4.10;;;;;;;17.27;78.93;96928.34;5091109;28;20877;-67
2021/07/09 02:02:20;;;;;;;4.53;4.10;;;;;;;17.10;79.28;96927.94;5091695;28;21836;-67
2021/07/09 02:04:48;;;;;;;9.57;4.33;;;;;;;17.23;79.16;96924.47;5091851;28;20416;-67
2021/07/09 02:07:14;;;;;;;5.67;4.10;;;;;;;16.98;79.74;96930.31;5092058;28;20185;-67
2021/07/09 02:09:45;;;;;;;4.90;4.00;;;;;;;17.24;79.25;96924.28;5098150;28;20439;-67
2021/07/09 02:12:12;;;;;;;5.83;4.20;;;;;;;17.23;79.01;96925.31;5095586;28;20934;-67
2021/07/09 02:14:38;;;;;;;7.87;4.57;;;;;;;16.84;80.25;96932.91;5090974;28;20420;-67
2021/07/09 02:17:11;;;;;;;4.70;4.30;;;;;;;17.13;79.37;96927.53;5100133;28;20513;-68
2021/07/09 02:19:38;;;;;;;6.27;5.07;;;;;;;17.06;80.00;96930.16;5092112;28;20520;-66
2021/07/09 02:22:05;;;;;;;5.40;4.13;;;;;;;16.94;79.74;96929.91;5095773;28;20447;-66
2021/07/09 02:24:32;;;;;;;5.07;4.57;;;;;;;17.10;79.86;96927.94;5097921;28;20901;-67
2021/07/09 02:26:59;;;;;;;6.43;4.50;;;;;;;17.06;80.26;96931.97;5093907;28;20428;-67
2021/07/09 02:29:26;;;;;;;6.00;4.70;;;;;;;17.31;78.77;96934.88;5092870;28;20443;-69
2021/07/09 02:31:51;;;;;;;5.13;4.70;;;;;;;16.88;80.10;96931.50;5091250;28;20909;-67
2021/07/09 02:34:17;;;;;;;8.20;4.10;;;;;;;17.13;79.04;96940.78;5090203;28;20423;-67
2021/07/09 02:36:43;;;;;;;5.23;4.57;;;;;;;17.03;79.50;96938.50;5090385;28;20756;-68
2021/07/09 02:39:08;;;;;;;5.87;4.30;;;;;;;16.87;79.90;96934.34;5093225;28;20240;-68
2021/07/09 02:41:34;;;;;;;5.07;4.50;;;;;;;17.11;79.05;96930.38;5090489;28;20178;-65
2021/07/09 02:44:00;;;;;;;5.67;4.30;;;;;;;17.06;79.24;96931.97;5090460;28;20185;-68
2021/07/09 02:46:25;;;;;;;5.73;4.60;;;;;;;16.98;79.00;96925.88;5082861;28;20577;-68
2021/07/09 02:48:51;;;;;;;6.90;4.43;;;;;;;16.94;79.27;96926.44;5090316;28;20213;-67
2021/07/09 02:51:16;;;;;;;6.70;4.07;;;;;;;17.01;79.13;96930.75;5090724;28;20186;-67
2021/07/09 02:53:42;;;;;;;11.83;5.83;;;;;;;16.99;78.86;96931.97;5089660;28;20605;-67
2021/07/09 02:56:07;;;;;;;6.13;4.47;;;;;;;16.99;79.07;96932.78;5085529;28;20177;-67
2021/07/09 02:58:33;;;;;;;16.10;6.33;;;;;;;17.20;78.00;96931.78;5090891;28;20548;-67
2021/07/09 03:00:58;;;;;;;10.60;5.20;;;;;;;17.23;77.49;96938.53;5089045;28;20202;-68
2021/07/09 03:03:24;;;;;;;11.00;4.97;;;;;;;17.14;77.83;96929.13;5089629;28;20192;-66
2021/07/09 03:05:50;;;;;;;8.20;4.17;;;;;;;17.19;77.32;96937.31;5089825;28;20181;-67
2021/07/09 03:08:15;;;;;;;5.33;4.50;;;;;;;17.13;77.34;96933.63;5090847;28;20205;-67
2021/07/09 03:10:41;;;;;;;5.03;3.83;;;;;;;17.34;76.77;96935.28;5089599;28;20194;-67
2021/07/09 03:13:07;;;;;;;6.03;3.97;;;;;;;17.12;77.31;96945.22;5088734;28;20675;-66
2021/07/09 03:15:32;;;;;;;5.80;4.20;;;;;;;16.90;78.50;96941.88;5090658;28;20285;-65
2021/07/09 03:17:58;;;;;;;7.97;4.43;;;;;;;17.03;77.86;96952.53;5090663;28;20269;-67
2021/07/09 03:20:23;;;;;;;10.43;3.90;;;;;;;17.26;76.68;96948.75;5092577;28;20209;-68
2021/07/09 03:22:49;;;;;;;6.77;4.43;;;;;;;17.24;76.52;96944.63;5094133;28;20182;-68
2021/07/09 03:25:15;;;;;;;5.00;4.50;;;;;;;17.28;76.76;96941.38;5087762;28;20194;-68
2021/07/09 03:27:40;;;;;;;22.30;9.37;;;;;;;17.40;75.98;96948.72;5094406;28;20301;-66
2021/07/09 03:30:07;;;;;;;23.17;7.30;;;;;;;17.09;77.42;96945.63;5093108;28;20285;-68
2021/07/09 03:32:33;;;;;;;6.27;4.60;;;;;;;17.05;77.38;96944.41;5094635;28;20264;-67
2021/07/09 03:34:58;;;;;;;9.90;5.73;;;;;;;16.97;77.10;96940.13;5093477;28;20519;-67
2021/07/09 03:37:24;;;;;;;5.07;4.57;;;;;;;16.93;77.59;96948.63;5080413;28;20632;-69
2021/07/09 03:39:49;;;;;;;53.33;14.93;;;;;;;16.91;78.01;96943.50;5093308;28;20312;-68
2021/07/09 03:42:15;;;;;;;14.27;7.00;;;;;;;17.07;77.90;96945.03;5092962;28;20212;-66
2021/07/09 03:44:40;;;;;;;7.33;4.97;;;;;;;17.00;78.18;96938.88;5092728;28;20546;-68
2021/07/09 03:47:06;;;;;;;7.73;5.20;;;;;;;16.86;78.32;96943.31;5093161;28;20189;-67
2021/07/09 03:49:32;;;;;;;8.47;5.60;;;;;;;16.83;78.38;96943.69;5092783;28;20198;-65
2021/07/09 03:51:57;;;;;;;6.03;4.73;;;;;;;16.67;79.27;96950.16;5093804;28;20527;-68
2021/07/09 03:54:23;;;;;;;7.20;5.37;;;;;;;16.89;77.98;96942.88;5093039;28;20188;-66
2021/07/09 03:56:48;;;;;;;5.20;4.70;;;;;;;17.24;76.80;96948.13;5093764;28;20242;-67
2021/07/09 03:59:14;;;;;;;8.50;4.73;;;;;;;16.83;77.89;96949.00;5092773;28;20617;-68
2021/07/09 04:01:39;;;;;;;5.60;5.07;;;;;;;16.74;78.41;96951.81;5092801;28;20185;-68
2021/07/09 04:04:05;;;;;;;6.13;4.77;;;;;;;16.89;77.65;96956.94;5092580;28;20185;-67
2021/07/09 04:06:31;;;;;;;5.20;4.70;;;;;;;16.85;77.87;96963.66;5092640;28;20556;-67
2021/07/09 04:08:56;;;;;;;6.13;5.00;;;;;;;16.87;77.98;96966.13;5090065;28;20205;-67
2021/07/09 04:11:22;;;;;;;5.40;4.90;;;;;;;16.59;79.21;96964.38;5097110;28;20178;-68
2021/07/09 04:13:47;;;;;;;7.90;4.50;;;;;;;16.89;77.84;96964.91;5098019;28;20185;-67
2021/07/09 04:16:13;;;;;;;6.90;4.30;;;;;;;16.70;78.38;96971.75;5092699;28;20181;-67
2021/07/09 04:18:39;;;;;;;5.30;4.90;;;;;;;16.61;78.95;96970.28;5093019;28;20617;-67
2021/07/09 04:21:04;;;;;;;7.60;4.60;;;;;;;16.62;78.72;96974.56;5100793;28;20202;-67
2021/07/09 04:23:30;;;;;;;8.10;4.60;;;;;;;16.85;78.01;96973.44;5090356;28;20180;-67
2021/07/09 04:25:55;;;;;;;6.07;5.00;;;;;;;16.97;76.93;96979.81;5096986;28;20185;-68
2021/07/09 04:28:21;;;;;;;7.20;5.20;;;;;;;16.97;77.61;96977.16;5092955;27;20205;-67
2021/07/09 04:30:49;;;;;;;6.93;4.70;;;;;;;17.07;76.71;96981.25;5092108;28;20209;-67
2021/07/09 04:33:16;;;;;;;5.13;4.57;;;;;;;16.70;78.04;96981.50;5092574;28;20204;-68
2021/07/09 04:35:41;;;;;;;5.90;4.90;;;;;;;16.85;77.36;96982.19;5093015;28;20428;-67
2021/07/09 04:38:07;;;;;;;5.30;4.80;;;;;;;16.89;77.53;96982.59;5089903;28;20809;-67
2021/07/09 04:40:32;;;;;;;5.10;4.20;;;;;;;16.98;76.67;96985.91;5092633;28;20206;-67
2021/07/09 04:42:58;;;;;;;4.00;3.70;;;;;;;17.04;76.55;96985.94;5091222;28;20174;-67
2021/07/09 04:45:24;;;;;;;7.90;4.60;;;;;;;16.74;78.02;96990.69;5093023;28;20398;-69
2021/07/09 04:47:49;;;;;;;5.17;4.03;;;;;;;17.07;76.49;96986.56;5093039;28;20285;-68
2021/07/09 04:50:15;;;;;;;4.47;4.03;;;;;;;17.07;76.42;96992.69;5092906;28;20202;-67
2021/07/09 04:52:41;;;;;;;4.57;4.17;;;;;;;16.95;77.19;96994.28;5092500;28;20269;-67
2021/07/09 04:55:07;;;;;;;6.80;4.27;;;;;;;16.76;77.76;96991.31;5092325;28;20990;-67
2021/07/09 04:57:33;;;;;;;9.47;4.27;;;;;;;16.97;76.97;96998.34;5091806;28;20178;-67
2021/07/09 04:59:58;;;;;;;6.80;4.30;;;;;;;16.94;77.00;96990.78;5091299;28;20454;-68
2021/07/09 05:02:25;;;;;;;5.30;4.20;;;;;;;16.83;77.34;97001.91;5091878;28;20377;-68
2021/07/09 05:04:51;;;;;;;4.30;3.73;;;;;;;17.24;76.08;97003.72;5091802;28;20641;-67
2021/07/09 05:07:17;;;;;;;4.30;3.97;;;;;;;16.87;76.94;97003.97;5089586;28;20914;-68
2021/07/09 05:09:42;;;;;;;4.10;3.67;;;;;;;16.87;76.97;97001.31;5090824;28;20448;-67
2021/07/09 05:12:08;;;;;;;6.67;4.30;;;;;;;17.05;76.59;97007.94;5091963;28;20189;-67
2021/07/09 05:14:34;;;;;;;4.33;3.93;;;;;;;16.97;76.87;97011.59;5091661;28;20189;-68
2021/07/09 05:16:59;;;;;;;5.67;4.00;;;;;;;17.00;77.66;97015.66;5091795;28;20173;-68
2021/07/09 05:19:25;;;;;;;5.40;3.90;;;;;;;16.83;77.92;97023.09;5091714;28;20209;-67
2021/07/09 05:21:50;;;;;;;5.80;4.20;;;;;;;17.14;77.35;97019.16;5090742;28;20666;-67
2021/07/09 05:24:17;;;;;;;5.60;4.37;;;;;;;16.85;78.53;97015.78;5091388;28;20192;-68
2021/07/09 05:26:43;;;;;;;5.40;4.10;;;;;;;16.72;78.53;97011.22;5091841;28;20182;-68
2021/07/09 05:29:09;;;;;;;5.67;3.97;;;;;;;16.68;78.68;97016.09;5091526;28;20463;-67
2021/07/09 05:31:35;;;;;;;4.57;4.13;;;;;;;16.81;78.55;97025.13;5090639;28;20900;-68
2021/07/09 05:34:01;;;;;;;4.57;4.20;;;;;;;16.84;78.56;97022.88;5089783;28;20420;-68
2021/07/09 05:36:27;;;;;;;4.30;3.90;;;;;;;16.55;79.17;97031.91;5091281;28;20288;-67
2021/07/09 05:38:52;;;;;;;6.03;4.07;;;;;;;16.85;78.03;97032.47;5085667;28;20432;-67
2021/07/09 05:41:18;;;;;;;6.80;4.27;;;;;;;17.01;77.51;97033.19;5091095;28;20794;-67
2021/07/09 05:43:44;;;;;;;4.23;3.83;;;;;;;16.76;78.05;97028.34;5091185;28;20530;-67
2021/07/09 05:46:09;;;;;;;4.00;3.60;;;;;;;16.88;78.08;97040.00;5091417;28;20189;-67
2021/07/09 05:48:35;;;;;;;6.77;4.30;;;;;;;16.69;78.51;97040.75;5089290;28;20210;-68
2021/07/09 05:51:01;;;;;;;4.50;3.70;;;;;;;16.65;78.86;97042.13;5090225;28;20197;-67
2021/07/09 05:53:27;;;;;;;4.43;4.10;;;;;;;16.95;77.94;97045.38;5089888;28;20771;-65
2021/07/09 05:55:52;;;;;;;7.77;4.50;;;;;;;16.88;78.59;97047.16;5090817;28;20189;-68
2021/07/09 05:58:18;;;;;;;5.50;4.50;;;;;;;16.90;79.08;97050.38;5090891;28;20268;-67
2021/07/09 06:00:44;;;;;;;5.30;4.70;;;;;;;16.89;78.78;97054.06;5092153;28;20202;-69
2021/07/09 06:03:10;;;;;;;5.13;4.70;;;;;;;16.80;79.74;97047.28;5090665;28;20185;-67
2021/07/09 06:05:35;;;;;;;5.53;5.03;;;;;;;16.62;80.33;97053.94;5094002;28;20479;-67
2021/07/09 06:08:03;;;;;;;7.07;5.50;;;;;;;16.69;80.84;97048.69;5090575;28;20258;-67
2021/07/09 06:10:28;;;;;;;5.63;5.13;;;;;;;16.81;80.72;97056.88;5090631;28;20577;-67
2021/07/09 06:12:54;;;;;;;5.00;4.53;;;;;;;16.87;80.31;97056.91;5090877;28;20424;-66
2021/07/09 06:15:20;;;;;;;6.63;5.50;;;;;;;16.70;80.43;97072.28;5091139;28;20376;-66
2021/07/09 06:17:45;;;;;;;5.40;5.00;;;;;;;16.85;79.82;97064.22;5090738;28;20182;-67
2021/07/09 06:20:11;;;;;;;7.00;5.80;;;;;;;17.15;78.88;97069.28;5090350;28;20289;-67
2021/07/09 06:22:37;;;;;;;7.00;5.60;;;;;;;16.77;80.20;97067.03;5091630;28;20181;-67
2021/07/09 06:25:03;;;;;;;6.97;5.00;;;;;;;17.19;78.52;97077.63;5091094;28;20909;-68
2021/07/09 06:27:29;;;;;;;8.53;6.40;;;;;;;17.26;78.73;97073.19;5091910;28;20241;-67
2021/07/09 06:29:55;;;;;;;5.40;4.90;;;;;;;17.31;77.94;97073.41;5096342;28;20454;-67
2021/07/09 06:32:20;;;;;;;6.50;5.30;;;;;;;17.03;78.97;97079.59;5093466;28;20282;-67
2021/07/09 06:34:46;;;;;;;6.03;5.43;;;;;;;17.17;78.61;97075.19;5099078;28;20185;-66
2021/07/09 06:37:11;;;;;;;6.03;5.43;;;;;;;17.45;77.57;97082.19;5102172;28;20196;-67
2021/07/09 06:39:37;;;;;;;9.10;5.40;;;;;;;17.42;77.83;97082.63;5098386;28;20213;-68
2021/07/09 06:42:03;;;;;;;8.13;5.43;;;;;;;17.20;78.80;97084.56;5092671;28;20182;-68
2021/07/09 06:44:28;;;;;;;5.87;5.30;;;;;;;17.51;77.53;97088.56;5090440;28;20208;-67
2021/07/09 06:46:54;;;;;;;5.30;4.90;;;;;;;17.54;77.38;97088.16;5091954;28;20281;-67
2021/07/09 06:49:19;;;;;;;7.33;6.00;;;;;;;17.61;78.07;97083.69;5093242;28;20225;-67
2021/07/09 06:51:45;;;;;;;6.00;5.40;;;;;;;18.15;75.88;97091.72;5100957;28;20212;-67
2021/07/09 06:54:10;;;;;;;6.70;5.33;;;;;;;18.13;75.46;97090.31;5099746;28;20231;-67
2021/07/09 06:56:36;;;;;;;6.50;5.40;;;;;;;18.27;75.72;97092.75;5097046;28;20905;-66
2021/07/09 06:59:02;;;;;;;9.47;5.40;;;;;;;18.21;75.08;97092.78;5093369;28;20609;-67
2021/07/09 07:01:27;;;;;;;5.83;5.30;;;;;;;18.13;75.44;97095.63;5093587;28;20182;-67
2021/07/09 07:03:53;;;;;;;6.13;5.43;;;;;;;18.19;75.14;97092.16;5093804;28;20178;-67
2021/07/09 07:06:18;;;;;;;7.00;5.07;;;;;;;18.34;74.91;97095.41;5093841;28;20390;-66
2021/07/09 07:08:44;;;;;;;7.97;5.70;;;;;;;18.60;74.14;97096.41;5086376;28;20217;-67
2021/07/09 07:11:09;;;;;;;10.23;6.50;;;;;;;18.26;75.00;97087.66;5087929;28;20210;-67
2021/07/09 07:13:35;;;;;;;11.60;6.50;;;;;;;18.44;74.11;97087.03;5093388;28;20186;-66
2021/07/09 07:16:01;;;;;;;7.53;6.83;;;;;;;18.22;74.82;97103.19;5097743;28;20189;-67
2021/07/09 07:18:27;;;;;;;7.00;6.40;;;;;;;18.40;74.22;97109.69;5096448;28;20178;-68
2021/07/09 07:20:53;;;;;;;8.90;5.83;;;;;;;18.58;73.36;97099.28;5095458;28;20501;-69
2021/07/09 07:23:19;;;;;;;6.10;5.60;;;;;;;18.42;73.41;97110.31;5090087;28;20522;-67
2021/07/09 07:25:47;;;;;;;9.27;6.20;;;;;;;18.98;71.53;97110.88;5085125;28;20407;-67
2021/07/09 07:28:15;;;;;;;10.20;6.07;;;;;;;18.93;71.91;97115.94;5090816;28;20464;-67
2021/07/09 07:30:41;;;;;;;6.30;5.70;;;;;;;19.17;70.84;97117.16;5088206;28;20447;-68
2021/07/09 07:33:09;;;;;;;7.60;5.90;;;;;;;19.45;69.57;97116.03;5088122;28;20511;-66
2021/07/09 07:35:36;;;;;;;15.50;7.03;;;;;;;19.49;69.69;97115.41;5087920;28;20447;-67
2021/07/09 07:38:02;;;;;;;6.67;5.93;;;;;;;19.18;70.30;97124.09;5085130;28;20425;-67
2021/07/09 07:40:27;;;;;;;8.80;6.07;;;;;;;19.55;69.40;97118.22;5081991;28;20470;-66
2021/07/09 07:42:53;;;;;;;10.13;6.03;;;;;;;18.61;71.24;97118.47;5085806;28;20938;-67
2021/07/09 07:45:19;;;;;;;6.43;5.47;;;;;;;19.21;70.01;97117.53;5083974;28;20676;-68
2021/07/09 07:47:44;;;;;;;8.87;5.73;;;;;;;19.17;69.84;97120.63;5078868;28;20206;-67
2021/07/09 07:50:12;;;;;;;7.77;6.33;;;;;;;19.52;69.12;97121.31;5086930;28;20214;-67
2021/07/09 07:52:38;;;;;;;7.33;6.37;;;;;;;19.55;69.14;97126.19;5080705;28;20186;-68
2021/07/09 07:55:04;;;;;;;6.50;5.90;;;;;;;19.49;69.04;97115.41;5078520;28;20959;-69
2021/07/09 07:57:30;;;;;;;6.80;4.87;;;;;;;18.93;69.94;97121.25;5091171;28;20207;-68
2021/07/09 07:59:56;;;;;;;5.93;5.30;;;;;;;19.30;68.06;97121.59;5093112;28;20436;-68
2021/07/09 08:02:21;;;;;;;6.50;5.13;;;;;;;19.64;67.29;97123.06;5091662;28;20579;-67
2021/07/09 08:04:48;;;;;;;5.73;4.97;;;;;;;19.82;66.67;97118.06;5092544;28;20235;-67
2021/07/09 08:07:14;;;;;;;5.80;4.67;;;;;;;19.83;66.32;97122.38;5092767;28;20189;-67
2021/07/09 08:09:41;;;;;;;10.83;5.60;;;;;;;20.10;65.52;97115.88;5093931;28;20443;-68
2021/07/09 08:12:07;;;;;;;8.03;5.50;;;;;;;20.37;65.48;97121.00;5093782;28;20474;-66
2021/07/09 08:14:33;;;;;;;5.20;4.70;;;;;;;20.26;64.23;97127.03;5094186;28;20503;-66
2021/07/09 08:16:59;;;;;;;10.30;4.70;;;;;;;20.42;64.02;97112.38;5094666;28;20469;-67
2021/07/09 08:19:25;;;;;;;14.40;4.90;;;;;;;20.68;63.30;97115.81;5090209;28;20432;-67
2021/07/09 08:21:50;;;;;;;4.80;3.90;;;;;;;20.59;63.14;97117.16;5093413;28;20612;-68
2021/07/09 08:24:18;;;;;;;7.60;4.57;;;;;;;20.47;63.84;97106.38;5092247;28;20181;-68
2021/07/09 08:26:44;;;;;;;4.73;4.33;;;;;;;20.28;63.18;97105.53;5093617;28;20231;-68
2021/07/09 08:29:10;;;;;;;4.10;3.80;;;;;;;20.10;63.09;97115.88;5093318;28;20836;-68
2021/07/09 08:31:36;;;;;;;7.87;4.47;;;;;;;20.40;62.39;97120.56;5093369;28;20420;-67
2021/07/09 08:34:02;;;;;;;5.30;3.97;;;;;;;20.29;62.44;97115.94;5093352;28;20182;-67
2021/07/09 08:36:27;;;;;;;6.73;4.47;;;;;;;20.32;63.05;97115.50;5091683;28;20185;-67
2021/07/09 08:38:53;;;;;;;5.03;4.50;;;;;;;20.79;61.15;97122.31;5092165;28;20432;-66
2021/07/09 08:41:20;;;;;;;4.77;4.37;;;;;;;20.13;62.85;97125.28;5094187;28;20190;-67
2021/07/09 08:43:45;;;;;;;8.80;4.50;;;;;;;20.79;61.66;97122.31;5093653;28;20548;-68
2021/07/09 08:46:12;;;;;;;5.83;5.20;;;;;;;20.26;62.90;97129.69;5093129;28;20427;-68
2021/07/09 08:48:39;;;;;;;4.60;4.27;;;;;;;20.64;61.28;97131.44;5090693;28;20209;-67
2021/07/09 08:51:05;;;;;;;6.97;4.83;;;;;;;20.38;62.40;97129.78;5092797;28;20448;-68
2021/07/09 08:53:31;;;;;;;9.00;5.17;;;;;;;20.53;62.16;97134.81;5075147;28;20698;-68
2021/07/09 08:55:57;;;;;;;9.67;5.27;;;;;;;20.79;60.64;97119.66;5093315;28;20447;-68
2021/07/09 08:58:22;;;;;;;4.90;4.50;;;;;;;21.22;59.67;97132.09;5092040;28;20227;-67
2021/07/09 09:00:48;;;;;;;4.57;4.17;;;;;;;21.31;58.07;97132.63;5091692;28;20198;-66
2021/07/09 09:03:24;;;;;;;6.00;5.40;;;;;;;21.37;58.19;97133.56;5098186;28;20185;-68
2021/07/09 09:05:50;;;;;;;4.77;4.30;;;;;;;21.91;56.85;97134.53;5095035;28;20473;-68
2021/07/09 09:08:18;;;;;;;7.23;4.37;;;;;;;22.13;56.08;97130.53;5092691;28;20839;-68
2021/07/09 09:10:55;;;;;;;13.13;4.90;;;;;;;21.66;58.00;97139.19;5092318;28;20448;-68
2021/07/09 09:13:35;;;;;;;8.57;4.37;;;;;;;21.94;57.17;97131.41;5091938;28;20497;-68
2021/07/09 09:16:05;;;;;;;10.20;4.07;;;;;;;21.44;57.43;97145.78;5090246;28;20431;-68
2021/07/09 09:18:45;;;;;;;4.87;4.30;;;;;;;21.83;57.02;97137.50;5089646;28;20423;-69
2021/07/09 09:21:21;;;;;;;5.13;4.13;;;;;;;21.55;57.24;97140.72;5092225;28;20439;-69
2021/07/09 09:23:51;;;;;;;7.60;4.03;;;;;;;21.68;56.66;97142.44;5091878;28;20420;-66
2021/07/09 09:26:43;;;;;;;4.93;4.40;;;;;;;21.79;55.23;97139.81;5092026;28;20951;-68
2021/07/09 09:29:35;;;;;;;6.20;4.20;;;;;;;21.74;55.20;97144.22;5092129;28;20514;-67
2021/07/09 09:32:07;;;;;;;4.50;4.20;;;;;;;21.72;55.08;97146.28;5091713;28;20498;-67
2021/07/09 09:34:44;;;;;;;13.20;4.50;;;;;;;22.14;54.20;97146.31;5091857;28;20441;-67
2021/07/09 09:37:11;;;;;;;6.33;4.27;;;;;;;21.57;55.89;97139.47;5090216;28;20427;-66
2021/07/09 09:39:42;;;;;;;5.27;4.77;;;;;;;21.49;56.07;97150.44;5091918;28;20456;-66
2021/07/09 09:42:08;;;;;;;5.63;4.97;;;;;;;21.86;55.41;97147.75;5091816;28;20443;-67
2021/07/09 09:44:34;;;;;;;6.60;4.63;;;;;;;21.97;54.13;97142.66;5091757;28;20570;-69
2021/07/09 09:47:22;;;;;;;10.87;5.20;;;;;;;22.33;53.93;97140.91;5090428;28;20424;-68
2021/07/09 09:49:52;;;;;;;5.20;4.67;;;;;;;22.37;53.01;97145.53;5087675;28;20205;-68
2021/07/09 09:52:37;;;;;;;5.40;4.50;;;;;;;22.38;53.15;97144.50;5091419;28;20424;-68
2021/07/09 09:55:19;;;;;;;5.63;4.57;;;;;;;22.67;52.24;97143.88;5090042;28;20461;-68
2021/07/09 09:57:45;;;;;;;6.17;4.60;;;;;;;22.79;51.31;97150.03;5091495;28;20482;-68
2021/07/09 10:00:20;;;;;;;6.20;5.13;;;;;;;22.68;51.80;97145.53;5089954;28;20782;-69
2021/07/09 10:02:46;;;;;;;5.07;4.50;;;;;;;22.67;50.92;97136.69;5091702;28;20419;-69
2021/07/09 10:05:12;;;;;;;5.93;4.50;;;;;;;23.06;50.70;97138.84;5091343;28;20743;-68
2021/07/09 10:07:38;;;;;;;5.63;4.07;;;;;;;23.37;49.94;97136.88;5090578;28;20459;-67
2021/07/09 10:10:05;;;;;;;4.97;4.40;;;;;;;23.34;49.44;97137.31;5092497;28;20206;-67
2021/07/09 10:12:31;;;;;;;4.03;3.63;;;;;;;23.51;48.80;97123.22;5091163;28;20423;-68
2021/07/09 10:14:57;;;;;;;7.43;4.40;;;;;;;23.88;48.42;97125.53;5091387;28;20778;-66
2021/07/09 10:17:25;;;;;;;6.37;3.80;;;;;;;23.66;47.88;97128.03;5091536;28;20428;-66
2021/07/09 10:19:53;;;;;;;10.00;4.43;;;;;;;23.49;49.27;97130.66;5091370;28;20197;-68
2021/07/09 10:22:19;;;;;;;4.53;3.83;;;;;;;23.31;49.65;97133.28;5091342;28;20420;-67
2021/07/09 10:24:46;;;;;;;5.00;4.50;;;;;;;22.95;50.45;97142.34;5091076;28;20545;-66
2021/07/09 10:27:12;;;;;;;5.80;5.20;;;;;;;22.57;50.84;97136.44;5090162;28;20192;-67
2021/07/09 10:29:45;;;;;;;5.77;5.27;;;;;;;22.12;52.17;97135.06;5092064;28;20548;-67
2021/07/09 10:32:11;;;;;;;10.23;6.03;;;;;;;21.70;54.04;97148.34;5076183;28;20538;-67
2021/07/09 10:34:48;;;;;;;8.70;6.50;;;;;;;21.86;54.10;97142.41;5095158;28;20580;-67
2021/07/09 10:37:28;;;;;;;8.27;7.20;;;;;;;21.47;54.66;97156.00;5095349;28;20234;-67
2021/07/09 10:40:05;;;;;;;8.60;7.70;;;;;;;21.46;55.18;97157.03;5095924;28;20466;-66
2021/07/09 10:42:39;;;;;;;8.03;7.23;;;;;;;21.91;54.60;97152.38;5096046;28;20464;-68
2021/07/09 10:45:26;;;;;;;9.93;7.83;;;;;;;22.31;53.38;97153.66;5094607;28;20416;-66
2021/07/09 10:47:51;;;;;;;7.67;6.80;;;;;;;22.32;53.34;97153.44;5094420;28;20456;-66
2021/07/09 10:50:26;;;;;;;8.27;6.73;;;;;;;22.32;53.56;97150.78;5092915;28;20436;-68
2021/07/09 10:52:57;;;;;;;7.30;6.57;;;;;;;22.77;51.83;97157.47;5096182;28;20192;-67
2021/07/09 10:55:29;;;;;;;12.30;6.60;;;;;;;22.72;51.57;97151.19;5094807;28;20931;-68
2021/07/09 10:58:06;;;;;;;9.67;7.70;;;;;;;22.61;50.53;97148.31;5095911;28;20435;-67
2021/07/09 11:00:44;;;;;;;9.70;7.40;;;;;;;23.06;50.02;97154.09;5088992;28;20524;-67
2021/07/09 11:03:11;;;;;;;8.00;7.03;;;;;;;23.49;48.82;97146.72;5094418;28;20912;-67
2021/07/09 11:05:42;;;;;;;6.90;6.20;;;;;;;24.44;47.34;97132.91;5095119;28;20424;-67
2021/07/09 11:08:30;;;;;;;9.80;8.00;;;;;;;24.22;46.88;97137.13;5093947;28;20452;-68
2021/07/09 11:11:03;;;;;;;7.27;6.60;;;;;;;24.03;46.38;97125.00;5096191;28;20516;-67
2021/07/09 11:13:46;;;;;;;8.20;6.20;;;;;;;24.10;45.46;97135.56;5096071;28;20448;-67
2021/07/09 11:16:24;;;;;;;10.57;6.20;;;;;;;24.51;44.94;97122.84;5096507;28;20424;-67
2021/07/09 11:19:07;;;;;;;7.80;6.03;;;;;;;23.73;46.47;97126.06;5093505;28;20507;-67
2021/07/09 11:21:33;;;;;;;7.00;6.30;;;;;;;23.88;46.76;97129.00;5096125;28;20497;-67
2021/07/09 11:23:59;;;;;;;6.73;6.00;;;;;;;23.27;48.95;97134.78;5096070;28;20462;-67
2021/07/09 11:26:32;;;;;;;6.30;5.80;;;;;;;23.19;49.82;97131.66;5097728;28;20649;-66
2021/07/09 11:28:58;;;;;;;8.13;6.30;;;;;;;23.47;49.55;97129.03;5101935;28;20448;-67
2021/07/09 11:31:35;;;;;;;7.10;6.40;;;;;;;23.34;48.52;97123.97;5102923;28;20988;-67
2021/07/09 11:34:09;;;;;;;7.37;6.63;;;;;;;23.74;47.88;97112.44;5099369;28;20420;-67